createdAt,value
2023-03-11T00:01:13.122Z,51.20
2023-03-11T00:03:41.268Z,51.10
2023-03-11T00:06:09.149Z,51.20
2023-03-11T00:08:37.101Z,51.10
2023-03-11T00:11:05.242Z,51.10
2023-03-11T00:13:36.436Z,51.20
2023-03-11T00:16:04.702Z,51.10
2023-03-11T00:18:32.592Z,51.10
2023-03-11T00:21:01.430Z,51.20
2023-03-11T00:23:29.707Z,51.00
2023-03-11T00:25:59.668Z,51.00
2023-03-11T00:28:27.539Z,51.10
2023-03-11T00:30:56.795Z,51.10
2023-03-11T00:33:24.790Z,51.10
2023-03-11T00:35:52.818Z,51.00
2023-03-11T00:38:21.039Z,51.00
2023-03-11T00:40:49.809Z,51.00
2023-03-11T00:43:18.439Z,51.00
2023-03-11T00:45:46.648Z,51.00
2023-03-11T00:48:16.300Z,51.00
2023-03-11T00:50:44.200Z,51.00
2023-03-11T00:53:12.362Z,51.00
2023-03-11T00:55:40.264Z,51.00
2023-03-11T00:58:08.989Z,51.00
2023-03-11T01:00:37.057Z,51.00
2023-03-11T01:03:05.157Z,51.00
2023-03-11T01:05:35.823Z,50.90
2023-03-11T01:08:04.929Z,51.00
2023-03-11T01:10:33.971Z,50.90
2023-03-11T01:13:01.982Z,50.90
2023-03-11T01:15:33.721Z,51.50
2023-03-11T01:18:02.256Z,50.90
2023-03-11T01:20:30.735Z,51.00
2023-03-11T01:23:00.040Z,50.90
2023-03-11T01:25:28.010Z,50.90
2023-03-11T01:27:55.972Z,50.90
2023-03-11T01:30:25.456Z,50.90
2023-03-11T01:32:55.053Z,50.90
2023-03-11T01:35:25.088Z,50.90
2023-03-11T01:37:54.002Z,50.90
2023-03-11T01:40:27.904Z,50.90
2023-03-11T01:42:55.961Z,50.90
2023-03-11T01:45:39.509Z,50.90
2023-03-11T01:48:08.449Z,50.90
2023-03-11T01:50:39.248Z,50.90
2023-03-11T01:53:07.563Z,50.90
2023-03-11T01:55:37.397Z,50.90
2023-03-11T01:58:08.491Z,50.90
2023-03-11T02:00:37.803Z,50.80
2023-03-11T02:03:12.531Z,50.80
2023-03-11T02:05:41.170Z,50.80
2023-03-11T02:08:09.505Z,50.80
2023-03-11T02:10:41.824Z,50.70
2023-03-11T02:13:10.632Z,50.70
2023-03-11T02:15:40.060Z,50.80
2023-03-11T02:18:10.106Z,50.70
2023-03-11T02:20:46.390Z,50.70
2023-03-11T02:23:16.747Z,50.70
2023-03-11T02:25:54.237Z,50.70
2023-03-11T02:28:25.007Z,50.70
2023-03-11T02:30:54.141Z,50.80
2023-03-11T02:33:24.325Z,50.70
2023-03-11T02:35:52.294Z,50.70
2023-03-11T02:38:20.240Z,50.70
2023-03-11T02:40:52.804Z,50.70
2023-03-11T02:43:28.519Z,50.70
2023-03-11T02:45:58.170Z,50.60
2023-03-11T02:48:26.920Z,50.70
2023-03-11T02:50:54.936Z,50.70
2023-03-11T02:53:22.833Z,50.60
2023-03-11T02:55:50.648Z,50.70
2023-03-11T02:58:18.502Z,50.60
2023-03-11T03:00:47.751Z,50.70
2023-03-11T03:03:15.844Z,50.60
2023-03-11T03:05:43.711Z,50.60
2023-03-11T03:08:11.665Z,50.60
2023-03-11T03:10:39.607Z,50.60
2023-03-11T03:13:07.424Z,50.60
2023-03-11T03:15:35.387Z,50.60
2023-03-11T03:18:04.749Z,50.60
2023-03-11T03:20:32.680Z,50.60
2023-03-11T03:23:00.618Z,50.60
2023-03-11T03:25:28.514Z,50.60
2023-03-11T03:27:56.410Z,50.60
2023-03-11T03:30:24.268Z,50.50
2023-03-11T03:32:52.220Z,50.60
2023-03-11T03:35:21.604Z,50.60
2023-03-11T03:37:49.446Z,50.60
2023-03-11T03:40:17.586Z,50.50
2023-03-11T03:42:45.419Z,50.50
2023-03-11T03:45:13.974Z,50.50
2023-03-11T03:47:42.176Z,50.50
2023-03-11T03:50:12.191Z,50.50
2023-03-11T03:52:41.442Z,50.50
2023-03-11T03:55:10.106Z,50.50
2023-03-11T03:57:37.985Z,50.50
2023-03-11T04:00:08.974Z,50.50
2023-03-11T04:02:37.126Z,50.50
2023-03-11T04:05:05.957Z,50.50
2023-03-11T04:07:35.790Z,50.50
2023-03-11T04:10:05.860Z,50.50
2023-03-11T04:12:33.800Z,50.50
2023-03-11T04:15:01.669Z,50.50
2023-03-11T04:17:29.514Z,50.40
2023-03-11T04:19:57.377Z,50.50
2023-03-11T04:22:25.232Z,50.40
2023-03-11T04:24:53.078Z,50.50
2023-03-11T04:27:22.272Z,50.50
2023-03-11T04:29:50.152Z,50.50
2023-03-11T04:32:18.137Z,50.50
2023-03-11T04:34:46.019Z,50.40
2023-03-11T04:37:13.838Z,50.40
2023-03-11T04:39:41.692Z,50.50
2023-03-11T04:42:09.538Z,50.50
2023-03-11T04:44:38.994Z,50.40
2023-03-11T04:47:07.048Z,50.50
2023-03-11T04:49:34.952Z,50.50
2023-03-11T04:52:03.100Z,50.40
2023-03-11T04:54:31.027Z,50.50
2023-03-11T04:56:58.866Z,50.40
2023-03-11T04:59:26.717Z,50.50
2023-03-11T05:01:56.001Z,50.40
2023-03-11T05:04:23.915Z,50.40
2023-03-11T05:06:52.176Z,50.40
2023-03-11T05:09:20.081Z,50.50
2023-03-11T05:11:48.067Z,50.40
2023-03-11T05:14:15.890Z,50.50
2023-03-11T05:16:43.744Z,50.50
2023-03-11T05:19:27.072Z,50.40
2023-03-11T05:21:55.262Z,50.40
2023-03-11T05:24:23.385Z,50.40
2023-03-11T05:26:51.537Z,50.40
2023-03-11T05:29:20.421Z,50.40
2023-03-11T05:31:48.711Z,50.40
2023-03-11T05:34:18.456Z,50.40
2023-03-11T05:36:46.533Z,50.40
2023-03-11T05:39:14.612Z,50.40
2023-03-11T05:41:43.075Z,50.40
2023-03-11T05:44:10.906Z,50.40
2023-03-11T05:46:38.860Z,50.40
2023-03-11T05:49:06.769Z,50.40
2023-03-11T05:51:36.612Z,50.40
2023-03-11T05:54:04.640Z,50.40
2023-03-11T05:56:32.521Z,50.40
2023-03-11T05:59:00.374Z,50.40
2023-03-11T06:01:28.258Z,50.40
2023-03-11T06:03:56.152Z,50.40
2023-03-11T06:06:25.118Z,50.40
2023-03-11T06:08:55.736Z,50.40
2023-03-11T06:11:26.919Z,50.40
2023-03-11T06:13:55.653Z,50.40
2023-03-11T06:16:23.897Z,50.40
2023-03-11T06:18:52.135Z,50.40
2023-03-11T06:21:21.676Z,50.40
2023-03-11T06:23:50.296Z,50.40
2023-03-11T06:26:21.648Z,50.20
2023-03-11T06:28:50.935Z,50.30
2023-03-11T06:31:22.570Z,50.40
2023-03-11T06:33:50.419Z,50.40
2023-03-11T06:36:20.278Z,50.40
2023-03-11T06:38:49.990Z,50.30
2023-03-11T06:41:19.283Z,50.30
2023-03-11T06:43:47.228Z,50.30
2023-03-11T06:46:18.207Z,50.30
2023-03-11T06:48:46.843Z,50.30
2023-03-11T06:51:15.485Z,50.30
2023-03-11T06:53:43.329Z,50.30
2023-03-11T06:56:13.245Z,50.30
2023-03-11T06:58:44.331Z,50.30
2023-03-11T07:01:14.646Z,50.30
2023-03-11T07:03:43.262Z,50.30
2023-03-11T07:06:14.648Z,50.30
2023-03-11T07:08:42.672Z,50.30
2023-03-11T07:11:15.021Z,50.30
2023-03-11T07:13:44.533Z,50.30
2023-03-11T07:16:15.622Z,50.30
2023-03-11T07:18:44.464Z,50.60
2023-03-11T07:21:14.403Z,50.30
2023-03-11T07:23:42.864Z,50.30
2023-03-11T07:26:11.426Z,50.30
2023-03-11T07:28:39.563Z,50.30
2023-03-11T07:31:14.240Z,50.30
2023-03-11T07:33:42.153Z,50.30
2023-03-11T07:36:11.856Z,50.30
2023-03-11T07:38:41.756Z,50.20
2023-03-11T07:41:11.134Z,50.30
2023-03-11T07:43:39.771Z,50.20
2023-03-11T07:46:09.869Z,50.30
2023-03-11T07:48:40.699Z,50.20
2023-03-11T07:51:11.096Z,50.20
2023-03-11T07:53:40.496Z,50.20
2023-03-11T07:56:09.991Z,50.20
2023-03-11T07:58:38.364Z,50.20
2023-03-11T08:01:08.174Z,50.20
2023-03-11T08:03:36.537Z,50.20
2023-03-11T08:06:14.082Z,50.20
2023-03-11T08:08:42.083Z,50.20
2023-03-11T08:11:09.994Z,50.20
2023-03-11T08:13:37.945Z,50.20
2023-03-11T08:16:06.653Z,50.20
2023-03-11T08:18:35.037Z,50.10
2023-03-11T08:21:09.289Z,50.20
2023-03-11T08:23:37.179Z,50.10
2023-03-11T08:26:05.673Z,50.10
2023-03-11T08:28:33.549Z,50.10
2023-03-11T08:31:01.729Z,50.10
2023-03-11T08:33:29.639Z,50.10
2023-03-11T08:35:57.829Z,50.10
2023-03-11T08:38:27.424Z,50.10
2023-03-11T08:40:55.292Z,50.10
2023-03-11T08:43:23.145Z,50.10
2023-03-11T08:45:51.114Z,50.10
2023-03-11T08:48:19.005Z,50.10
2023-03-11T08:50:53.847Z,50.10
2023-03-11T08:53:22.482Z,50.10
2023-03-11T08:55:52.760Z,50.10
2023-03-11T08:58:21.388Z,50.10
2023-03-11T09:00:49.235Z,50.10
2023-03-11T09:03:17.101Z,50.10
2023-03-11T09:05:44.995Z,50.10
2023-03-11T09:08:13.027Z,50.10
2023-03-11T09:10:40.885Z,50.10
2023-03-11T09:13:10.066Z,50.10
2023-03-11T09:15:38.841Z,50.10
2023-03-11T09:18:09.023Z,50.10
2023-03-11T09:20:39.320Z,50.10
2023-03-11T09:23:07.238Z,50.10
2023-03-11T09:25:35.120Z,50.10
2023-03-11T09:28:03.008Z,50.10
2023-03-11T09:30:32.430Z,50.10
2023-03-11T09:33:00.295Z,50.10
2023-03-11T09:35:28.332Z,50.10
2023-03-11T09:37:56.176Z,50.10
2023-03-11T09:40:26.443Z,50.00
2023-03-11T09:43:04.118Z,50.00
2023-03-11T09:45:37.479Z,50.00
2023-03-11T09:48:22.671Z,49.90
2023-03-11T09:50:55.881Z,50.00
2023-03-11T09:53:30.587Z,50.00
2023-03-11T09:56:00.382Z,50.00
2023-03-11T09:58:38.805Z,50.10
2023-03-11T10:01:16.160Z,49.90
2023-03-11T10:03:45.270Z,50.00
2023-03-11T10:06:16.998Z,50.00
2023-03-11T10:08:48.770Z,50.00
2023-03-11T10:11:47.026Z,50.00
2023-03-11T10:14:31.629Z,49.90
2023-03-11T10:17:09.073Z,49.90
2023-03-11T10:19:42.656Z,50.00
2023-03-11T10:22:21.074Z,50.00
2023-03-11T10:25:03.024Z,49.90
2023-03-11T10:27:34.475Z,50.00
2023-03-11T10:30:14.219Z,50.00
2023-03-11T10:32:47.779Z,50.00
2023-03-11T10:35:19.613Z,50.00
2023-03-11T10:37:52.996Z,50.00
2023-03-11T10:40:27.086Z,49.90
2023-03-11T10:42:57.692Z,50.00
2023-03-11T10:45:26.722Z,49.90
2023-03-11T10:47:57.966Z,50.60
2023-03-11T10:50:26.083Z,49.90
2023-03-11T10:53:09.734Z,50.00
2023-03-11T10:55:47.484Z,50.00
2023-03-11T10:58:18.769Z,50.00
2023-03-11T11:00:47.076Z,50.00
2023-03-11T11:03:23.055Z,50.00
2023-03-11T11:06:02.114Z,50.00
2023-03-11T11:08:30.331Z,50.00
2023-03-11T11:11:00.215Z,50.00
2023-03-11T11:13:31.170Z,50.00
2023-03-11T11:16:01.892Z,50.00
2023-03-11T11:18:34.472Z,50.00
2023-03-11T11:21:05.628Z,50.00
2023-03-11T11:23:40.344Z,50.00
2023-03-11T11:26:20.398Z,50.00
2023-03-11T11:28:48.666Z,49.90
2023-03-11T11:31:25.757Z,50.00
2023-03-11T11:33:56.599Z,49.90
2023-03-11T11:36:28.744Z,50.00
2023-03-11T11:38:57.217Z,50.00
2023-03-11T11:41:27.117Z,50.00
2023-03-11T11:43:56.285Z,50.00
2023-03-11T11:46:30.203Z,50.00
2023-03-11T11:49:17.889Z,50.00
2023-03-11T11:51:51.780Z,50.00
2023-03-11T11:54:25.993Z,49.90
2023-03-11T11:56:55.768Z,50.00
2023-03-11T11:59:25.535Z,50.00
2023-03-11T12:02:05.064Z,49.90
2023-03-11T12:04:47.745Z,50.00
2023-03-11T12:07:33.214Z,50.00
2023-03-11T12:10:22.261Z,49.90
2023-03-11T12:13:06.764Z,49.90
2023-03-11T12:15:40.118Z,49.90
2023-03-11T12:18:18.667Z,50.00
2023-03-11T12:20:50.879Z,50.00
2023-03-11T12:23:20.997Z,49.90
2023-03-11T12:26:11.788Z,49.90
2023-03-11T12:28:45.406Z,49.90
2023-03-11T12:31:14.706Z,50.00
2023-03-11T12:33:45.587Z,49.90
2023-03-11T12:36:34.357Z,49.90
2023-03-11T12:39:06.141Z,50.00
2023-03-11T12:41:39.922Z,49.90
2023-03-11T12:44:24.066Z,49.90
2023-03-11T12:47:19.656Z,49.90
2023-03-11T12:49:49.361Z,49.90
2023-03-11T12:52:27.329Z,49.90
2023-03-11T12:55:38.638Z,49.90
2023-03-11T12:58:45.673Z,50.00
2023-03-11T13:01:35.925Z,49.90
2023-03-11T13:04:36.875Z,50.00
2023-03-11T13:07:37.875Z,49.90
2023-03-11T13:10:14.658Z,50.00
2023-03-11T13:12:44.972Z,50.10
2023-03-11T13:15:41.184Z,50.00
2023-03-11T13:18:23.667Z,49.90
2023-03-11T13:20:58.642Z,50.10
2023-03-11T13:23:31.386Z,49.90
2023-03-11T13:26:31.072Z,49.90
2023-03-11T13:29:47.471Z,49.90
2023-03-11T13:32:39.255Z,49.90
2023-03-11T13:35:21.600Z,49.90
2023-03-11T13:38:06.893Z,49.90
2023-03-11T13:40:40.075Z,49.90
2023-03-11T13:43:14.107Z,49.90
2023-03-11T13:45:42.239Z,49.90
2023-03-11T13:48:22.258Z,49.90
2023-03-11T13:50:56.135Z,49.90
2023-03-11T13:53:30.966Z,49.90
2023-03-11T13:56:00.271Z,49.90
2023-03-11T13:58:29.713Z,49.90
2023-03-11T14:00:59.396Z,49.90
2023-03-11T14:03:29.844Z,49.90
2023-03-11T14:06:00.166Z,49.90
2023-03-11T14:08:30.062Z,49.90
2023-03-11T14:11:00.341Z,49.90
2023-03-11T14:13:30.161Z,49.90
2023-03-11T14:16:05.313Z,49.90
2023-03-11T14:18:39.090Z,49.90
2023-03-11T14:21:12.764Z,49.80
2023-03-11T14:23:43.795Z,49.90
2023-03-11T14:26:16.540Z,49.80
2023-03-11T14:28:47.655Z,49.90
2023-03-11T14:31:25.851Z,49.90
2023-03-11T14:33:58.659Z,49.90
2023-03-11T14:36:26.584Z,49.80
2023-03-11T14:38:54.414Z,49.90
2023-03-11T14:41:23.782Z,49.90
2023-03-11T14:43:55.001Z,49.80
2023-03-11T14:46:28.735Z,49.80
2023-03-11T14:48:59.050Z,49.80
2023-03-11T14:51:33.269Z,49.80
2023-03-11T14:54:09.653Z,49.80
2023-03-11T14:56:44.434Z,49.80
2023-03-11T14:59:18.532Z,49.80
2023-03-11T15:01:48.101Z,49.80
2023-03-11T15:04:27.423Z,49.90
2023-03-11T15:06:56.367Z,49.90
2023-03-11T15:09:25.631Z,49.90
2023-03-11T15:11:58.143Z,49.90
2023-03-11T15:14:28.741Z,49.80
2023-03-11T15:17:11.739Z,49.80
2023-03-11T15:19:41.230Z,49.80
2023-03-11T15:22:25.745Z,49.90
2023-03-11T15:24:55.834Z,49.90
2023-03-11T15:27:32.160Z,49.90
2023-03-11T15:30:01.322Z,49.80
2023-03-11T15:32:43.386Z,49.90
2023-03-11T15:35:18.631Z,49.80
2023-03-11T15:37:48.312Z,49.80
2023-03-11T15:40:26.114Z,49.80
2023-03-11T15:43:23.879Z,49.80
2023-03-11T15:45:54.524Z,49.80
2023-03-11T15:48:23.177Z,49.80
2023-03-11T15:51:03.662Z,49.80
2023-03-11T15:53:32.239Z,49.80
2023-03-11T15:56:07.844Z,49.90
2023-03-11T15:58:37.315Z,49.80
2023-03-11T16:01:05.337Z,49.80
2023-03-11T16:03:33.232Z,49.80
2023-03-11T16:06:01.137Z,49.80
2023-03-11T16:08:30.385Z,49.80
2023-03-11T16:10:58.599Z,49.80
2023-03-11T16:13:26.556Z,49.80
2023-03-11T16:15:54.537Z,49.80
2023-03-11T16:18:22.424Z,49.80
2023-03-11T16:20:52.985Z,49.80
2023-03-11T16:23:23.244Z,49.80
2023-03-11T16:25:54.396Z,49.80
2023-03-11T16:28:22.241Z,49.90
2023-03-11T16:30:51.745Z,49.80
2023-03-11T16:33:19.651Z,49.80
2023-03-11T16:35:48.172Z,49.80
2023-03-11T16:38:17.650Z,49.90
2023-03-11T16:40:45.495Z,49.90
2023-03-11T16:43:15.401Z,49.80
2023-03-11T16:45:43.253Z,49.90
2023-03-11T16:48:11.086Z,49.90
2023-03-11T16:50:38.946Z,49.90
2023-03-11T16:53:06.857Z,49.90
2023-03-11T16:55:34.701Z,49.90
2023-03-11T16:58:02.556Z,49.90
2023-03-11T17:00:31.759Z,49.90
2023-03-11T17:02:59.619Z,49.90
2023-03-11T17:05:27.473Z,49.90
2023-03-11T17:08:00.010Z,49.80
2023-03-11T17:10:28.337Z,49.90
2023-03-11T17:12:56.223Z,49.90
2023-03-11T17:15:24.156Z,50.00
2023-03-11T17:17:53.358Z,49.90
2023-03-11T17:20:21.859Z,49.90
2023-03-11T17:22:49.763Z,49.80
2023-03-11T17:25:17.707Z,49.90
2023-03-11T17:27:45.588Z,49.90
2023-03-11T17:30:19.382Z,50.00
2023-03-11T17:32:53.953Z,49.80
2023-03-11T17:35:21.831Z,49.90
2023-03-11T17:37:49.776Z,49.90
2023-03-11T17:40:17.854Z,49.90
2023-03-11T17:42:45.717Z,49.90
2023-03-11T17:45:13.913Z,49.80
2023-03-11T17:47:41.859Z,49.90
2023-03-11T17:50:13.027Z,49.90
2023-03-11T17:52:40.906Z,50.00
2023-03-11T17:55:09.908Z,49.90
2023-03-11T17:57:44.967Z,49.90
2023-03-11T18:00:14.878Z,49.90
2023-03-11T18:02:43.273Z,49.80
2023-03-11T18:05:12.719Z,49.90
2023-03-11T18:07:40.620Z,50.00
2023-03-11T18:10:10.538Z,50.00
2023-03-11T18:12:39.272Z,50.00
2023-03-11T18:15:14.268Z,49.90
2023-03-11T18:17:42.203Z,49.90
2023-03-11T18:20:13.514Z,49.90
2023-03-11T18:22:45.666Z,50.00
2023-03-11T18:25:14.120Z,50.00
2023-03-11T18:27:42.011Z,50.00
2023-03-11T18:30:11.800Z,50.00
2023-03-11T18:32:39.681Z,50.00
2023-03-11T18:35:08.346Z,50.00
2023-03-11T18:37:37.541Z,49.90
2023-03-11T18:40:07.119Z,50.00
2023-03-11T18:42:35.114Z,50.00
2023-03-11T18:45:03.048Z,49.90
2023-03-11T18:47:34.000Z,49.90
2023-03-11T18:50:01.861Z,49.90
2023-03-11T18:52:29.676Z,50.00
2023-03-11T18:54:58.912Z,50.00
2023-03-11T18:57:27.257Z,50.00
2023-03-11T18:59:55.148Z,49.90
2023-03-11T19:02:23.039Z,49.90
2023-03-11T19:04:50.925Z,49.90
2023-03-11T19:07:18.873Z,49.90
2023-03-11T19:09:49.145Z,49.90
2023-03-11T19:12:18.345Z,49.80
2023-03-11T19:14:46.221Z,49.80
2023-03-11T19:17:16.381Z,49.90
2023-03-11T19:19:44.418Z,49.90
2023-03-11T19:22:12.265Z,49.80
2023-03-11T19:24:40.239Z,49.90
2023-03-11T19:27:08.076Z,49.90
2023-03-11T19:29:37.341Z,49.90
2023-03-11T19:32:05.656Z,49.90
2023-03-11T19:34:33.576Z,49.90
2023-03-11T19:37:01.459Z,49.90
2023-03-11T19:39:29.305Z,49.90
2023-03-11T19:41:58.792Z,49.90
2023-03-11T19:44:26.656Z,49.90
2023-03-11T19:46:55.870Z,49.90
2023-03-11T19:49:23.766Z,49.90
2023-03-11T19:51:52.813Z,49.90
2023-03-11T19:54:20.746Z,49.90
2023-03-11T19:56:48.983Z,49.90
2023-03-11T19:59:17.182Z,49.90
2023-03-11T20:01:45.198Z,49.90
2023-03-11T20:04:15.132Z,49.90
2023-03-11T20:06:43.620Z,49.90
2023-03-11T20:09:13.093Z,49.90
2023-03-11T20:11:41.617Z,49.90
2023-03-11T20:14:10.806Z,49.90
2023-03-11T20:16:39.056Z,49.90
2023-03-11T20:19:07.645Z,49.80
2023-03-11T20:21:39.265Z,49.90
2023-03-11T20:24:08.058Z,49.90
2023-03-11T20:26:36.001Z,49.90
2023-03-11T20:29:04.261Z,49.90
2023-03-11T20:31:32.783Z,49.80
2023-03-11T20:34:00.996Z,49.80
2023-03-11T20:36:30.470Z,49.90
2023-03-11T20:39:00.348Z,49.80
2023-03-11T20:41:29.613Z,49.80
2023-03-11T20:43:58.304Z,49.80
2023-03-11T20:46:26.372Z,49.80
2023-03-11T20:48:54.339Z,49.80
2023-03-11T20:51:24.356Z,49.80
2023-03-11T20:53:52.809Z,49.80
2023-03-11T20:56:23.924Z,49.80
2023-03-11T20:58:52.037Z,49.80
2023-03-11T21:01:22.246Z,49.80
2023-03-11T21:03:50.949Z,49.80
2023-03-11T21:06:20.800Z,49.80
2023-03-11T21:08:48.781Z,49.80
2023-03-11T21:11:17.949Z,49.80
2023-03-11T21:13:47.167Z,49.80
2023-03-11T21:16:15.838Z,49.80
2023-03-11T21:18:45.224Z,49.80
2023-03-11T21:21:15.544Z,49.80
2023-03-11T21:23:43.992Z,49.80
2023-03-11T21:26:13.030Z,49.80
2023-03-11T21:28:42.234Z,49.80
2023-03-11T21:31:13.624Z,49.80
2023-03-11T21:33:42.187Z,49.90
2023-03-11T21:36:12.615Z,49.80
2023-03-11T21:38:41.108Z,49.70
2023-03-11T21:41:11.625Z,49.80
2023-03-11T21:43:41.609Z,49.80
2023-03-11T21:46:13.373Z,49.80
2023-03-11T21:48:41.404Z,49.80
2023-03-11T21:51:09.678Z,49.70
2023-03-11T21:53:38.160Z,49.70
2023-03-11T21:56:06.870Z,49.80
2023-03-11T21:58:35.285Z,49.60
2023-03-11T22:01:04.208Z,50.40
2023-03-11T22:03:35.827Z,49.70
2023-03-11T22:06:05.581Z,49.70
2023-03-11T22:08:33.629Z,49.70
2023-03-11T22:11:02.030Z,49.60
2023-03-11T22:13:30.162Z,49.60
2023-03-11T22:15:58.138Z,49.70
2023-03-11T22:18:26.076Z,49.60
2023-03-11T22:20:58.378Z,49.70
2023-03-11T22:23:26.514Z,49.70
2023-03-11T22:25:54.543Z,49.70
2023-03-11T22:28:22.981Z,49.60
2023-03-11T22:30:50.819Z,49.60
2023-03-11T22:33:18.816Z,49.70
2023-03-11T22:35:51.285Z,49.60
2023-03-11T22:38:20.586Z,50.30
2023-03-11T22:40:48.434Z,49.60
2023-03-11T22:43:16.585Z,49.60
2023-03-11T22:45:45.759Z,49.60
2023-03-11T22:48:13.648Z,49.60
2023-03-11T22:50:41.910Z,50.30
2023-03-11T22:53:09.962Z,49.60
2023-03-11T22:55:41.560Z,49.60
2023-03-11T22:58:09.439Z,49.60
2023-03-11T23:00:39.444Z,49.60
2023-03-11T23:03:07.534Z,49.60
2023-03-11T23:05:41.523Z,49.60
2023-03-11T23:08:10.597Z,49.60
2023-03-11T23:10:42.865Z,49.60
2023-03-11T23:13:10.928Z,49.60
2023-03-11T23:15:40.794Z,49.60
2023-03-11T23:18:08.750Z,49.60
2023-03-11T23:20:37.862Z,49.60
2023-03-11T23:23:06.664Z,49.60
2023-03-11T23:25:36.088Z,49.60
2023-03-11T23:28:06.732Z,49.60
2023-03-11T23:30:34.887Z,49.60
2023-03-11T23:33:03.707Z,49.60
2023-03-11T23:35:32.397Z,49.60
2023-03-11T23:38:00.958Z,49.60
2023-03-11T23:40:28.860Z,49.60
2023-03-11T23:42:56.754Z,49.60
2023-03-11T23:45:26.067Z,49.60
2023-03-11T23:47:53.983Z,49.60
2023-03-11T23:50:21.911Z,49.70
2023-03-11T23:52:49.773Z,49.60
2023-03-11T23:55:17.774Z,49.50
2023-03-11T23:57:45.630Z,49.60
